Aérodrome :
LOGIN :

S'inscrire | Disclaimer

   EN    FR    IT 

 










Légende :    VFR   VFR Marginal   IFR   IFR Intensif   IFR Très Intensif
Visi : 
Plafond : 
>= 8 km
>= 3000ft
5 à 8 km
1000 à 3000 ft
1500m à 5 km
500 à 1000 ft
800 à 1500m
200 à 500 ft
< 800m
< 200 ft
Symboles :   Orages  Brouillard  Fortes neiges  Fortes précipitations  Vent > 20 kt
SIGMETs :   Divers  Orages  Givrage  Turbulence  Onde Orograph.  Cendres Volcan.






- Altitude de l'aérodrome : 55 ft


EGNO - Warton Preston

DERNIER METAR :
  • 261550Z 29015KT 9999 FEW026 06/01 Q1005

METARs EXPIRÉS :
  • 261520Z 28017KT 9999 FEW018 FEW023TCU BKN031 06/01 Q1005
  • 261450Z 28017KT 9999 VCSH FEW018 FEW023CB BKN032 07/02 Q1004
  • 261420Z 28017KT 9999 VCSH FEW016 FEW020CB BKN027 07/03 Q1004
  • 261350Z 28015KT 9999 VCSH FEW016 SCT020 FEW020CB BKN036 06/02 Q1004
  • 261320Z 29010KT 9999 VCSH FEW016 BKN020CB 05/02 Q1004

TAF TAF EGNO
Valide du 26 à 15h jusqu'au 26 à 19h UTC


261404Z 2615/2619 31010KT 9999 FEW012 SCT025
PROB40
TEMPO 2615/2618 32015G25KT 6000 SHRA
ATIS : +44 1772 856 060



MET'MAP, la Météo Aéronautique d'un coup d'oeil ! - Copyright ORBIFLY Décembre 2007 - Disclaimer

ORBIFLY MET'MAP TEAM :

Programmation & Développement : Alexandra Zaïnal
Sur une idée originale de : Baudouin d'Aumeries
Assistance à la programmation : Marc-Olivier Méhu
Soutien technique & logistique : Manuel Goepfert

Contact : metmap@orbifly.com




SOURCES & CREDITS :

   NOAA